Time,TemperatureF,DewpointF,PressureIn,WindDirection,WindDirectionDegrees,WindSpeedMPH,WindSpeedGustMPH,Humidity,HourlyPrecipIn,Conditions,Clouds,dailyrainin,SolarRadiationWatts/m^2,SoftwareType,DateUTC
2013-05-19 00:02:00,66.0,66.0,-100.00,North,5,1.0,2.0,99,0.00,,,0.41,0.000000,,2013-05-19 04:02:00,
2013-05-19 00:33:00,66.0,66.0,-100.00,North,5,1.0,2.0,99,0.00,,,0.41,0.000000,,2013-05-19 04:33:00,
2013-05-19 00:42:00,66.0,66.0,-100.00,North,5,1.0,2.0,99,0.00,,,0.41,0.000000,,2013-05-19 04:42:00,
2013-05-19 00:53:00,66.0,66.0,-100.00,North,5,1.0,2.0,99,0.00,,,0.41,0.000000,,2013-05-19 04:53:00,
2013-05-19 01:02:00,66.0,66.0,-100.00,SE,132,2.0,5.0,100,0.45,,,0.80,0.000000,,2013-05-19 05:02:00,
2013-05-19 01:32:00,66.0,66.0,-100.00,SE,132,2.0,5.0,100,0.45,,,0.80,0.000000,,2013-05-19 05:32:00,
2013-05-19 01:42:00,66.0,66.0,-100.00,SE,132,2.0,5.0,100,0.45,,,0.80,0.000000,,2013-05-19 05:42:00,
2013-05-19 01:52:00,66.0,66.0,-100.00,SE,132,2.0,5.0,100,0.45,,,0.80,0.000000,,2013-05-19 05:52:00,
2013-05-19 02:32:00,66.0,66.0,-100.00,NNW,330,2.0,6.0,100,0.23,,,0.96,0.000000,,2013-05-19 06:32:00,
2013-05-19 02:42:00,66.0,66.0,-100.00,NNW,330,2.0,6.0,100,0.23,,,0.96,0.000000,,2013-05-19 06:42:00,
2013-05-19 02:52:00,66.0,66.0,-100.00,NNW,330,2.0,6.0,100,0.23,,,0.96,0.000000,,2013-05-19 06:52:00,
2013-05-19 03:01:00,66.0,66.0,-100.00,NNW,330,2.0,6.0,100,0.23,,,0.96,0.000000,,2013-05-19 07:01:00,
2013-05-19 03:02:00,65.0,65.0,-100.00,North,350,3.0,7.0,100,0.85,,,1.78,0.000000,,2013-05-19 07:02:00,
2013-05-19 03:32:00,65.0,65.0,-100.00,North,350,3.0,7.0,100,0.85,,,1.78,0.000000,,2013-05-19 07:32:00,
2013-05-19 03:42:00,65.0,65.0,-100.00,North,350,3.0,7.0,100,0.85,,,1.78,0.000000,,2013-05-19 07:42:00,
2013-05-19 03:52:00,65.0,65.0,-100.00,North,350,3.0,7.0,100,0.85,,,1.78,0.000000,,2013-05-19 07:52:00,
2013-05-19 04:02:00,65.0,65.0,-100.00,NE,35,2.0,5.0,100,1.10,,,2.84,0.000000,,2013-05-19 08:02:00,
2013-05-19 04:32:00,65.0,65.0,-100.00,NE,35,2.0,5.0,100,1.10,,,2.84,0.000000,,2013-05-19 08:32:00,
2013-05-19 04:42:00,65.0,65.0,-100.00,NE,35,2.0,5.0,100,1.10,,,2.84,0.000000,,2013-05-19 08:42:00,
2013-05-19 04:52:00,65.0,65.0,-100.00,NE,35,2.0,5.0,100,1.10,,,2.84,0.000000,,2013-05-19 08:52:00,
2013-05-19 05:02:00,64.0,64.0,-100.00,South,172,3.0,6.0,100,1.18,,,3.99,0.000000,,2013-05-19 09:02:00,
2013-05-19 05:33:00,64.0,64.0,-100.00,South,172,3.0,6.0,100,1.18,,,3.99,0.000000,,2013-05-19 09:33:00,
2013-05-19 05:43:00,64.0,64.0,-100.00,South,172,3.0,6.0,100,1.18,,,3.99,0.000000,,2013-05-19 09:43:00,
2013-05-19 05:53:00,64.0,64.0,-100.00,South,172,3.0,6.0,100,1.18,,,3.99,0.000000,,2013-05-19 09:53:00,
2013-05-19 06:02:00,64.0,64.0,-100.00,NE,44,2.0,5.0,100,0.03,,,4.01,0.000000,,2013-05-19 10:02:00,
2013-05-19 06:23:00,64.0,64.0,-100.00,NE,44,2.0,5.0,100,0.03,,,4.01,0.000000,,2013-05-19 10:23:00,
2013-05-19 06:33:00,64.0,64.0,-100.00,NE,44,2.0,5.0,100,0.03,,,4.01,0.000000,,2013-05-19 10:33:00,
2013-05-19 06:42:00,64.0,64.0,-100.00,NE,44,2.0,5.0,100,0.03,,,4.01,0.000000,,2013-05-19 10:42:00,
2013-05-19 06:53:00,64.0,64.0,-100.00,NE,44,2.0,5.0,100,0.03,,,4.01,0.000000,,2013-05-19 10:53:00,
2013-05-19 07:32:00,64.0,64.0,-100.00,SE,146,2.0,5.0,100,0.15,,,4.13,0.000000,,2013-05-19 11:32:00,
2013-05-19 07:42:00,64.0,64.0,-100.00,SE,146,2.0,5.0,100,0.15,,,4.13,0.000000,,2013-05-19 11:42:00,
2013-05-19 07:53:00,64.0,64.0,-100.00,SE,146,2.0,5.0,100,0.15,,,4.13,0.000000,,2013-05-19 11:53:00,
2013-05-19 08:01:00,64.0,64.0,-100.00,SE,146,2.0,5.0,100,0.15,,,4.13,0.000000,,2013-05-19 12:01:00,
2013-05-19 08:32:00,64.0,64.0,-100.00,NNE,13,2.0,6.0,100,0.96,,,5.09,1.000000,,2013-05-19 12:32:00,
2013-05-19 08:42:00,64.0,64.0,-100.00,NNE,13,2.0,6.0,100,0.96,,,5.09,1.000000,,2013-05-19 12:42:00,
2013-05-19 08:52:00,64.0,64.0,-100.00,NNE,13,2.0,6.0,100,0.96,,,5.09,1.000000,,2013-05-19 12:52:00,
2013-05-19 09:01:00,64.0,64.0,-100.00,NNE,13,2.0,6.0,100,0.96,,,5.09,1.000000,,2013-05-19 13:01:00,
2013-05-19 10:02:00,67.0,67.0,-100.00,South,188,1.0,5.0,100,-99.99,,,5.17,204.000000,,2013-05-19 14:02:00,
2013-05-19 10:32:00,67.0,67.0,-100.00,South,188,1.0,5.0,100,-99.99,,,5.17,204.000000,,2013-05-19 14:32:00,
2013-05-19 10:42:00,67.0,67.0,-100.00,South,188,1.0,5.0,100,-99.99,,,5.17,204.000000,,2013-05-19 14:42:00,
2013-05-19 10:52:00,67.0,67.0,-100.00,South,188,1.0,5.0,100,-99.99,,,5.17,204.000000,,2013-05-19 14:52:00,
2013-05-19 11:02:00,65.0,65.0,-100.00,SE,125,1.0,3.0,100,0.00,,,5.17,37.000000,,2013-05-19 15:02:00,
2013-05-19 11:33:00,65.0,65.0,-100.00,SE,125,1.0,3.0,100,0.00,,,5.17,37.000000,,2013-05-19 15:33:00,
2013-05-19 11:43:00,65.0,65.0,-100.00,SE,125,1.0,3.0,100,0.00,,,5.17,37.000000,,2013-05-19 15:43:00,
2013-05-19 11:53:00,65.0,65.0,-100.00,SE,125,1.0,3.0,100,0.00,,,5.17,37.000000,,2013-05-19 15:53:00,
2013-05-19 12:02:00,65.0,65.0,-100.00,SSE,152,3.0,5.0,100,0.02,,,5.19,16.000000,,2013-05-19 16:02:00,
2013-05-19 12:33:00,65.0,65.0,-100.00,SSE,152,3.0,5.0,100,0.02,,,5.19,16.000000,,2013-05-19 16:33:00,
2013-05-19 12:42:00,65.0,65.0,-100.00,SSE,152,3.0,5.0,100,0.02,,,5.19,16.000000,,2013-05-19 16:42:00,
2013-05-19 12:52:00,65.0,65.0,-100.00,SSE,152,3.0,5.0,100,0.02,,,5.19,16.000000,,2013-05-19 16:52:00,
2013-05-19 13:02:00,64.0,64.0,-100.00,NNE,13,2.0,7.0,100,0.01,,,5.20,11.000000,,2013-05-19 17:02:00,
2013-05-19 13:32:00,64.0,64.0,-100.00,NNE,13,2.0,7.0,100,0.01,,,5.20,11.000000,,2013-05-19 17:32:00,
2013-05-19 13:43:00,64.0,64.0,-100.00,NNE,13,2.0,7.0,100,0.01,,,5.20,11.000000,,2013-05-19 17:43:00,
2013-05-19 13:52:00,64.0,64.0,-100.00,NNE,13,2.0,7.0,100,0.01,,,5.20,11.000000,,2013-05-19 17:52:00,
2013-05-19 14:32:00,66.0,66.0,-100.00,NNW,339,2.0,5.0,100,0.00,,,5.20,55.000000,,2013-05-19 18:32:00,
2013-05-19 14:43:00,66.0,66.0,-100.00,NNW,339,2.0,5.0,100,0.00,,,5.20,55.000000,,2013-05-19 18:43:00,
2013-05-19 14:53:00,66.0,66.0,-100.00,NNW,339,2.0,5.0,100,0.00,,,5.20,55.000000,,2013-05-19 18:53:00,
2013-05-19 15:01:00,66.0,66.0,-100.00,NNW,339,2.0,5.0,100,0.00,,,5.20,55.000000,,2013-05-19 19:01:00,
2013-05-19 15:02:00,66.0,66.0,-100.00,NNW,333,3.0,4.0,100,0.07,,,5.27,53.000000,,2013-05-19 19:02:00,
2013-05-19 15:32:00,66.0,66.0,-100.00,NNW,333,3.0,4.0,100,0.07,,,5.27,53.000000,,2013-05-19 19:32:00,
2013-05-19 15:42:00,66.0,66.0,-100.00,NNW,333,3.0,4.0,100,0.07,,,5.27,53.000000,,2013-05-19 19:42:00,
2013-05-19 15:52:00,66.0,66.0,-100.00,NNW,333,3.0,4.0,100,0.07,,,5.27,53.000000,,2013-05-19 19:52:00,
2013-05-19 16:02:00,66.0,66.0,-100.00,SE,146,2.0,4.0,100,0.16,,,5.31,28.000000,,2013-05-19 20:02:00,
2013-05-19 16:32:00,66.0,66.0,-100.00,SE,146,2.0,4.0,100,0.16,,,5.31,28.000000,,2013-05-19 20:32:00,
2013-05-19 16:42:00,66.0,66.0,-100.00,SE,146,2.0,4.0,100,0.16,,,5.31,28.000000,,2013-05-19 20:42:00,
2013-05-19 16:52:00,66.0,66.0,-100.00,SE,146,2.0,4.0,100,0.16,,,5.31,28.000000,,2013-05-19 20:52:00,
2013-05-19 17:02:00,67.0,67.0,-100.00,West,270,2.0,7.0,100,0.04,,,5.35,149.000000,,2013-05-19 21:02:00,
2013-05-19 17:32:00,67.0,67.0,-100.00,West,270,2.0,7.0,100,0.04,,,5.35,149.000000,,2013-05-19 21:32:00,
2013-05-19 17:43:00,67.0,67.0,-100.00,West,270,2.0,7.0,100,0.04,,,5.35,149.000000,,2013-05-19 21:43:00,
2013-05-19 17:53:00,67.0,67.0,-100.00,West,270,2.0,7.0,100,0.04,,,5.35,149.000000,,2013-05-19 21:53:00,
2013-05-19 18:02:00,66.0,65.0,-100.00,WSW,250,3.0,9.0,97,0.00,,,5.35,81.000000,,2013-05-19 22:02:00,
2013-05-19 18:33:00,66.0,65.0,-100.00,WSW,250,3.0,9.0,97,0.00,,,5.35,81.000000,,2013-05-19 22:33:00,
2013-05-19 18:43:00,66.0,65.0,-100.00,WSW,250,3.0,9.0,97,0.00,,,5.35,81.000000,,2013-05-19 22:43:00,
2013-05-19 18:53:00,66.0,65.0,-100.00,WSW,250,3.0,9.0,97,0.00,,,5.35,81.000000,,2013-05-19 22:53:00,
2013-05-19 19:02:00,65.0,64.0,-100.00,SSE,151,2.0,8.0,98,0.00,,,5.33,54.000000,,2013-05-19 23:02:00,
2013-05-19 19:32:00,65.0,64.0,-100.00,SSE,151,2.0,8.0,98,0.00,,,5.33,54.000000,,2013-05-19 23:32:00,
2013-05-19 19:42:00,65.0,64.0,-100.00,SSE,151,2.0,8.0,98,0.00,,,5.33,54.000000,,2013-05-19 23:42:00,
2013-05-19 19:52:00,65.0,64.0,-100.00,SSE,151,2.0,8.0,98,0.00,,,5.33,54.000000,,2013-05-19 23:52:00,
2013-05-19 20:22:00,64.0,64.0,-100.00,South,177,2.0,4.0,100,0.01,,,5.34,16.000000,,2013-05-20 00:22:00,
2013-05-19 20:32:00,64.0,64.0,-100.00,South,177,2.0,4.0,100,0.01,,,5.34,16.000000,,2013-05-20 00:32:00,
2013-05-19 20:42:00,64.0,64.0,-100.00,South,177,2.0,4.0,100,0.01,,,5.34,16.000000,,2013-05-20 00:42:00,
2013-05-19 20:52:00,64.0,64.0,-100.00,South,177,2.0,4.0,100,0.01,,,5.34,16.000000,,2013-05-20 00:52:00,
2013-05-19 21:01:00,64.0,64.0,-100.00,South,177,2.0,4.0,100,0.01,,,5.34,16.000000,,2013-05-20 01:01:00,
2013-05-19 21:02:00,64.0,64.0,-100.00,SSE,162,2.0,7.0,100,0.00,,,5.34,1.000000,,2013-05-20 01:02:00,
2013-05-19 21:32:00,64.0,64.0,-100.00,SSE,162,2.0,7.0,100,0.00,,,5.34,1.000000,,2013-05-20 01:32:00,
2013-05-19 21:42:00,64.0,64.0,-100.00,SSE,162,2.0,7.0,100,0.00,,,5.34,1.000000,,2013-05-20 01:42:00,
2013-05-19 21:52:00,64.0,64.0,-100.00,SSE,162,2.0,7.0,100,0.00,,,5.34,1.000000,,2013-05-20 01:52:00,
2013-05-19 22:02:00,63.0,63.0,-100.00,North,11,2.0,3.0,100,0.00,,,5.34,0.000000,,2013-05-20 02:02:00,
2013-05-19 22:22:00,63.0,63.0,-100.00,North,11,2.0,3.0,100,0.00,,,5.34,0.000000,,2013-05-20 02:22:00,
2013-05-19 22:32:00,63.0,63.0,-100.00,North,11,2.0,3.0,100,0.00,,,5.34,0.000000,,2013-05-20 02:32:00,
2013-05-19 22:42:00,63.0,63.0,-100.00,North,11,2.0,3.0,100,0.00,,,5.34,0.000000,,2013-05-20 02:42:00,
2013-05-19 22:52:00,63.0,63.0,-100.00,North,11,2.0,3.0,100,0.00,,,5.34,0.000000,,2013-05-20 02:52:00,
2013-05-19 23:02:00,63.0,63.0,-100.00,NNE,30,2.0,4.0,100,0.00,,,5.34,0.000000,,2013-05-20 03:02:00,
2013-05-19 23:33:00,63.0,63.0,-100.00,NNE,30,2.0,4.0,100,0.00,,,5.34,0.000000,,2013-05-20 03:33:00,
2013-05-19 23:43:00,63.0,63.0,-100.00,NNE,30,2.0,4.0,100,0.00,,,5.34,0.000000,,2013-05-20 03:43:00,
2013-05-19 23:53:00,63.0,63.0,-100.00,NNE,30,2.0,4.0,100,0.00,,,5.34,0.000000,,2013-05-20 03:53:00,